Kommunar, Russia
Current Conditions -  °F | °C
As of 3:00 PM on Thursday 27 Nov 2014 (Local Time) from UNAA Reporting Station
Broken Clouds Broken Clouds  
Wind Chill: 15°   Ceiling: 10000
Heat Index: 25°   Visibility: 6mi
Dew Point: 12°   Wind: 9mph
Humidity: 59%   Direction: 210°SSW
Pressure: 29.56"   Gusts: NA
Location:  54.33°N, 89.28°E
Report Text: UNAA 270800Z 21004MPS 9999 SCT033CB BKN100 M04/M11 Q1001 NOSIGRMK QFE728 20090060
Loading
Personal Weather Stations






























Interactive Weather Map New forecast layout! Learn more

10-Day Weather Forecast

Advertisements
Track Severe Weather on mobile